• Join FlightAware (Why Join?)
  • Login
  • US Flag 
04:16AM EDT


 

Airport Tracker/Info


-or-


 

Live Flight TrackerFlight Track Log ✈ CES5528 ✈ 18-May-2014 ✈ ZHLY / LYA - ZSSS / SHA

Flight Track Log - Related Links

Times and Time Zones

All times are in EDT time to prevent confusion due to time zone crossing. See the CES5528 flight status page for this flight to view local times or setup timezone preferences in your user account.

Time Position Orientation Groundspeed Altitude Reporting Facility
EDT Latitude Longitude Course Direction KTS MPH feet Rate Location/Type
12:06PM 33.5054 115.7826 113° Southeast  Level Estimated
12:07PM 33.4579 115.9064 115° Southeast  Level Estimated
12:08PM 33.4102 116.0301 115° Southeast  Level Estimated
12:09PM 33.3624 116.1537 115° Southeast  Level Estimated
12:10PM 33.3145 116.2771 115° Southeast  Level Estimated
12:11PM 33.2665 116.4003 115° Southeast  Level Estimated
12:12PM 33.2184 116.5235 115° Southeast  Level Estimated
12:13PM 33.1701 116.6465 115° Southeast  Level Estimated
12:14PM 33.1217 116.7693 115° Southeast  Level Estimated
12:15PM 33.0732 116.8921 115° Southeast  Level Estimated
12:16PM 33.0246 117.0146 115° Southeast  Level Estimated
12:17PM 32.9758 117.1371 115° Southeast  Level Estimated
12:18PM 32.9270 117.2594 115° Southeast  Level Estimated
12:19PM 32.8780 117.3816 115° Southeast  Level Estimated
12:20PM 32.8289 117.5036 116° Southeast  Level Estimated
12:21PM 32.7797 117.6255 116° Southeast  Level Estimated
12:22PM 32.7303 117.7473 116° Southeast  Level Estimated
12:23PM 32.6808 117.8690 116° Southeast  Level Estimated
12:24PM 32.6313 117.9905 116° Southeast  Level Estimated
12:25PM 32.5816 118.1119 116° Southeast  Level Estimated
12:26PM 32.5318 118.2331 116° Southeast  Level Estimated
12:27PM 32.4818 118.3542 116° Southeast  Level Estimated
12:28PM 32.4318 118.4752 116° Southeast  Level Estimated
12:29PM 32.3816 118.5960 116° Southeast  Level Estimated
12:30PM 32.3314 118.7167 116° Southeast  Level Estimated
12:31PM 32.2810 118.8373 116° Southeast  Level Estimated
12:32PM 32.2305 118.9577 116° Southeast  Level Estimated
12:33PM 32.1799 119.0780 116° Southeast  Level Estimated
12:34PM 32.1291 119.1982 116° Southeast  Level Estimated
12:35PM 32.0783 119.3182 117° Southeast  Level Estimated
12:36PM 32.0273 119.4381 117° Southeast  Level Estimated
12:37PM 31.9763 119.5579 117° Southeast  Level Estimated
12:38PM 31.9251 119.6775 117° Southeast  Level Estimated
12:39PM 31.8738 119.7970 117° Southeast  Level Estimated
12:40PM 31.8224 119.9164 117° Southeast  Level Estimated
12:41PM 31.7709 120.0356 117° Southeast  Level Estimated
12:42PM 31.7192 120.1547 117° Southeast  Level Estimated
12:43PM 31.6675 120.2737 117° Southeast  Level Estimated
12:44PM 31.6157 120.3925 117° Southeast  Level Estimated
12:45PM 31.5637 120.5112 117° Southeast  Level Estimated
12:46PM 31.5116 120.6298 117° Southeast  Level Estimated
12:47PM 31.4594 120.7482 117° Southeast  Level Estimated
12:48PM 31.4072 120.8665 117° Southeast  Level Estimated
12:49PM 31.3548 120.9847 117° Southeast  Level Estimated
12:50PM 31.2976 121.1133 117° Southeast  Level Estimated
12:51PM 31.2402 121.2417 118° Southeast  Level Estimated
12:51PM 31.3559 121.1461 82° East 209 241 4,800  Level FlightAware ADS-B (ZSSS / SHA)
12:51PM 31.3579 121.1644 83° East 203 234 4,700 -600 Descending FlightAware ADS-B (ZSSS / SHA)
12:51PM 31.3595 121.1805 83° East 199 229 4,500 -840 Descending FlightAware ADS-B (ZSSS / SHA)
12:52PM 31.3608 121.1933 83° East 198 228 4,300 -1,140 Descending FlightAware ADS-B (ZSSS / SHA)
12:52PM 31.3654 121.2373 83° East 200 230 3,500 -1,140 Descending FlightAware ADS-B (ZSSS / SHA)
12:53PM 31.3668 121.2525 84° East 198 228 3,300 -1,020 Descending FlightAware ADS-B (ZSSS / SHA)
12:53PM 31.3681 121.2675 84° East 195 224 3,000 -1,080 Descending FlightAware ADS-B (ZSSS / SHA)
12:53PM 31.3691 121.2805 84° East 194 223 2,800 -960 Descending FlightAware ADS-B (ZSSS / SHA)
12:53PM 31.3690 121.2956 100° East 192 221 2,600 -660 Descending FlightAware ADS-B (ZSSS / SHA)
12:55PM 31.3169 121.3291 170° South 188 216 1,900 -600 Descending FlightAware ADS-B (ZSSS / SHA)
12:55PM 31.3001 121.3307 176° South 164 189 1,700 -660 Descending FlightAware ADS-B (ZSSS / SHA)
12:55PM 31.2872 121.3314 177° South 150 173 1,500 -720 Descending FlightAware ADS-B (ZSSS / SHA)
12:55PM 31.2775 121.3320 177° South 142 163 1,300 -900 Descending FlightAware ADS-B (ZSSS / SHA)
12:56PM 31.2691 121.3324 177° South 138 159 1,100 -720 Descending FlightAware ADS-B (ZSSS / SHA)
12:56PM 31.2538 121.3333 177° South 139 160 900 -720 Descending FlightAware ADS-B (ZSSS / SHA)
12:56PM 31.2467 121.3337 177° South 139 160 700 -840 Descending FlightAware ADS-B (ZSSS / SHA)
12:56PM 31.2353 121.3343 177° South 140 161 500 -780 Descending FlightAware ADS-B (ZSSS / SHA)
12:57PM 31.2207 121.3350 177° South 138 159 200 -780 Descending FlightAware ADS-B (ZSSS / SHA)
12:59PM 31.1979 121.3363 177° South  Level Estimated
01:00PM 31.1979 121.3363 North  Level Estimated
01:01PM 31.1979 121.3363 North  Level Estimated
01:02PM 31.1979 121.3363 North  Level Estimated